Valparaiso, Chile
Current Conditions -  °F | °C
As of 8:00 AM on Thursday 23 Oct 2014 (Local Time) from SCVM Reporting Station
Moderate Fog Moderate Fog  
Wind Chill: 10°   Ceiling: 100
Heat Index: 10°   Visibility: 0.18mi
Dew Point: 10°   Wind: 0mph
Humidity: 100%   Direction: NA
Pressure: 30"   Gusts: NA
Location:  33.04°S, 71.64°W
Report Text: SCVM 231100Z 00000KT 0300 FG OVC001 10/10 Q1016
Loading
Personal Weather Stations






























Interactive Weather Map
Tropical Storm Tracking
New forecast layout! Learn more

10-Day Weather Forecast

Advertisements
Track Severe Weather on mobile